Edwards Air Force Base
KEDW : now visible

Airfield :











YOU CAN JOIN US ON...

 
LOGIN :

Register | Disclaimer

   EN    FR    IT 

 









Legend :    VFR   Marginal VFR   IFR   Intensive IFR   Very Intensive IFR
Visi :
Ceiling :
>= 8 km
>= 3000ft
5 to 8 km
1000 to 3000 ft
1500m to 5 km
500 to 1000 ft
800 to 1500m
200 to 500 ft
< 800m
< 200 ft
Symbols :   Thunderstorms  Fog  Heavy snow  Heavy precipitations  Wind > 20 kt






- Airport Elevation : 2312 ft


KEDW - Edwards Air Force Base

CURRENT METAR :
  • 122258Z 00000KT 80SM BKN250 25/M07 A3004 RMK AO2A SLP162 T02541072

EXPIRED METARs :
  • 122158Z 00000KT 80SM BKN250 25/M07 A3005 RMK AO2A SLP167 T02471066
  • 122058Z 00000KT 80SM BKN250 24/M09 A3008 RMK AO2A SLP176 T02361086 57031

TAF TAF KEDW
Valid from the 12 at 22:00 until the 14 at 04:00 UTC


122200Z 1222/1404 VRB06KT 9999 BKN250 QNH3004INS
BECMG 1302/1303 VRB06KT 9999 SCT250 QNH3006INS
BECMG 1314/1315 VRB06KT 9999 BKN250 QNH3008INS TX26/1222Z TN04/1314Z



MET'MAP, your aeronautical weather chart ! - Copyright ORBIFLY December 2007 - Disclaimer

ORBIFLY MET'MAP TEAM :

Programming & Development : Alexandra Zaïnal
Concept & Development : Baudouin d'Aumeries
Co-Development & Prog : Marc-Olivier Méhu
Technical & hardware support : Manuel Goepfert

Contact : metmap@orbifly.com




SOURCES & CREDITS :

   NOAA       Earth
Advisory